Time;durP1;ratioP1;P1;durP2;ratioP2;P2;SDS_P1;SDS_P2;PMS_P1;PMS_P2;Temp;Humidity;BMP_temperature;BMP_pressure;BME280_temperature;BME280_humidity;BME280_pressure;Samples;Min_cycle;Max_cycle;Signal;HPM_P1;HPM_P2
2022/08/17 00:00:59;;;;;;;14.90;13.50;;;;;;;25.61;50.90;101117.78;5075629;28;20468;-88
2022/08/17 00:03:38;;;;;;;14.98;13.25;;;;;;;25.62;50.85;101122.13;5075337;28;20372;-88
2022/08/17 00:06:26;;;;;;;14.07;12.68;;;;;;;25.63;50.79;101118.59;5076897;28;20031;-87
2022/08/17 00:08:57;;;;;;;15.32;13.93;;;;;;;25.63;51.10;101115.06;5076860;28;20055;-87
2022/08/17 00:11:29;;;;;;;15.90;14.13;;;;;;;25.63;51.01;101118.59;5075637;28;20036;-87
2022/08/17 00:14:03;;;;;;;15.30;13.83;;;;;;;25.64;50.74;101114.16;5074666;28;20024;-86
2022/08/17 00:16:37;;;;;;;14.93;13.40;;;;;;;25.61;50.92;101116.94;5075941;28;20024;-88
2022/08/17 00:19:06;;;;;;;15.85;13.57;;;;;;;25.60;50.72;101117.84;5075913;28;20440;-88
2022/08/17 00:21:34;;;;;;;16.10;14.30;;;;;;;25.61;50.94;101106.38;5075414;28;20058;-82
2022/08/17 00:23:59;;;;;;;15.95;14.30;;;;;;;25.60;51.15;101097.59;5074681;28;20357;-81
2022/08/17 00:26:26;;;;;;;16.63;14.68;;;;;;;25.61;50.89;101106.38;5057659;28;20035;-82
2022/08/17 00:28:52;;;;;;;16.38;14.55;;;;;;;25.61;50.98;101095.84;5075127;28;20440;-87
2022/08/17 00:31:18;;;;;;;16.10;14.40;;;;;;;25.62;51.04;101094.91;5058570;28;20037;-88
2022/08/17 00:33:44;;;;;;;17.15;15.50;;;;;;;25.61;51.28;101091.44;5058477;28;20153;-88
2022/08/17 00:36:12;;;;;;;17.00;15.32;;;;;;;25.62;51.20;101094.91;5058278;28;20506;-87
2022/08/17 00:38:38;;;;;;;17.42;15.63;;;;;;;25.60;51.01;101097.59;5075104;28;20434;-87
2022/08/17 00:41:17;;;;;;;17.15;15.43;;;;;;;25.64;51.30;101095.72;5058241;28;20031;-87
2022/08/17 00:43:44;;;;;;;17.52;15.05;;;;;;;25.64;51.11;101096.56;5074973;28;20032;-88
2022/08/17 00:46:17;;;;;;;16.92;15.25;;;;;;;25.63;51.25;101089.59;5074719;28;20046;-88
2022/08/17 00:48:46;;;;;;;18.27;15.45;;;;;;;25.62;50.89;101095.75;5076007;28;20029;-88
2022/08/17 00:51:17;;;;;;;16.30;14.82;;;;;;;25.64;50.99;101086.03;5076314;28;20117;-87
2022/08/17 00:53:49;;;;;;;18.13;15.77;;;;;;;25.66;51.14;101088.59;5074745;28;20073;-88
2022/08/17 00:56:21;;;;;;;16.88;15.25;;;;;;;25.63;51.15;101076.41;5075277;28;20031;-88
2022/08/17 00:58:48;;;;;;;16.90;15.35;;;;;;;25.62;51.28;101073.81;5076576;28;20384;-88
2022/08/17 01:01:14;;;;;;;17.02;15.30;;;;;;;25.60;51.14;101071.25;5078608;28;20025;-88
2022/08/17 01:03:42;;;;;;;16.58;14.98;;;;;;;25.60;51.28;101070.38;5078251;28;20024;-88
2022/08/17 01:06:09;;;;;;;16.98;15.18;;;;;;;25.60;51.24;101068.59;5060239;28;20035;-88
2022/08/17 01:08:37;;;;;;;15.63;14.13;;;;;;;25.61;51.36;101061.59;5058207;28;20020;-86
2022/08/17 01:11:04;;;;;;;16.90;15.18;;;;;;;25.58;51.24;101056.41;5058300;28;20476;-89
2022/08/17 01:13:39;;;;;;;16.20;14.70;;;;;;;25.60;51.33;101058.06;5073995;28;20028;-88
2022/08/17 01:16:10;;;;;;;17.27;15.65;;;;;;;25.58;51.29;101054.63;5074245;28;20107;-88
2022/08/17 01:18:36;;;;;;;16.70;14.95;;;;;;;25.60;51.41;101060.69;5073755;28;20032;-88
2022/08/17 01:21:12;;;;;;;16.17;14.48;;;;;;;25.59;51.58;101060.78;5057407;28;20028;-88
2022/08/17 01:23:37;;;;;;;16.52;14.93;;;;;;;25.59;51.26;101058.16;5073563;28;20083;-88
2022/08/17 01:26:05;;;;;;;16.98;15.35;;;;;;;25.57;51.59;101063.47;5040668;28;20024;-88
2022/08/17 01:28:33;;;;;;;16.55;14.90;;;;;;;25.54;51.51;101065.34;5073861;28;20029;-88
2022/08/17 01:31:02;;;;;;;16.20;14.60;;;;;;;25.57;51.63;101075.78;5073652;28;20127;-87
2022/08/17 01:33:30;;;;;;;15.77;14.07;;;;;;;25.59;51.30;101085.34;5073513;28;20448;-88
2022/08/17 01:35:56;;;;;;;15.07;13.57;;;;;;;25.60;51.15;101079.16;5075055;28;20028;-86
2022/08/17 01:38:23;;;;;;;15.68;14.20;;;;;;;25.57;51.30;101081.06;5073534;28;20532;-87
2022/08/17 01:40:56;;;;;;;14.05;12.75;;;;;;;25.57;51.39;101081.06;5073943;28;20025;-88
2022/08/17 01:43:26;;;;;;;15.60;14.00;;;;;;;25.55;51.57;101081.13;5074699;28;20479;-88
2022/08/17 01:45:55;;;;;;;15.18;13.68;;;;;;;25.56;51.46;101077.56;5073841;28;20388;-88
2022/08/17 01:48:22;;;;;;;15.85;14.30;;;;;;;25.54;51.66;101079.38;5073542;28;20056;-87
2022/08/17 01:50:50;;;;;;;16.33;14.80;;;;;;;25.57;51.56;101078.44;5073367;28;20028;-88
2022/08/17 01:53:20;;;;;;;17.02;14.48;;;;;;;25.56;51.76;101082.81;5073449;28;20040;-88
2022/08/17 01:55:58;;;;;;;16.70;15.00;;;;;;;25.57;51.41;101084.56;5073563;28;20028;-88
2022/08/17 01:58:24;;;;;;;16.17;14.65;;;;;;;25.56;51.76;101090.72;5073224;28;20036;-89
2022/08/17 02:00:52;;;;;;;16.05;14.65;;;;;;;25.56;51.53;101090.72;5056660;28;20025;-88
2022/08/17 02:03:19;;;;;;;15.77;14.20;;;;;;;25.58;51.64;101091.53;5073238;28;20020;-88
2022/08/17 02:05:47;;;;;;;16.65;15.10;;;;;;;25.58;51.91;101091.53;5073527;28;20047;-88
2022/08/17 02:08:13;;;;;;;15.57;14.15;;;;;;;25.60;51.65;101078.28;5040864;28;20028;-87
2022/08/17 02:10:39;;;;;;;16.67;14.40;;;;;;;25.60;51.39;101070.38;5056505;28;20037;-87
2022/08/17 02:13:04;;;;;;;15.93;14.43;;;;;;;25.59;51.77;101073.97;5040254;28;20035;-88
2022/08/17 02:15:30;;;;;;;14.68;13.10;;;;;;;25.59;51.41;101074.81;5073417;28;20059;-87
2022/08/17 02:17:56;;;;;;;15.13;13.82;;;;;;;25.57;51.56;101079.28;5056986;28;20032;-87
2022/08/17 02:20:21;;;;;;;14.02;12.68;;;;;;;25.55;51.75;101075.84;5040318;28;20051;-88
2022/08/17 02:22:48;;;;;;;14.40;12.90;;;;;;;25.57;51.80;101086.34;5057039;28;20052;-88
2022/08/17 02:25:17;;;;;;;13.77;12.40;;;;;;;25.58;51.45;101099.44;5073683;28;20059;-87
2022/08/17 02:27:42;;;;;;;13.95;12.65;;;;;;;25.57;51.84;101128.50;5073721;28;20025;-88
2022/08/17 02:30:11;;;;;;;14.35;12.90;;;;;;;25.55;51.88;101175.97;5073731;28;20051;-88
2022/08/17 02:32:36;;;;;;;16.13;14.63;;;;;;;25.60;51.86;101183.72;5074907;28;20070;-88
2022/08/17 02:35:04;;;;;;;15.30;13.82;;;;;;;25.62;51.74;101188.00;5058440;28;20025;-88
2022/08/17 02:37:30;;;;;;;14.45;13.05;;;;;;;25.69;51.82;101212.34;5078107;28;20357;-88
2022/08/17 02:39:57;;;;;;;13.20;12.00;;;;;;;25.78;51.77;101211.13;5079039;28;20096;-87
2022/08/17 02:42:32;;;;;;;13.50;12.20;;;;;;;25.82;51.61;101213.59;5065974;28;20037;-88
2022/08/17 02:44:59;;;;;;;14.52;12.10;;;;;;;25.83;51.54;101217.97;5082398;28;20023;-88
2022/08/17 02:47:25;;;;;;;15.30;12.23;;;;;;;25.87;51.24;101205.53;5065487;28;20036;-88
2022/08/17 02:49:52;;;;;;;10.98;9.88;;;;;;;25.88;51.00;101207.28;5076759;28;20025;-88
2022/08/17 02:52:17;;;;;;;11.60;10.10;;;;;;;25.90;51.16;101204.59;5073886;28;20078;-89
2022/08/17 02:54:43;;;;;;;10.40;9.30;;;;;;;25.92;51.36;101213.31;5040577;28;20028;-88
2022/08/17 02:57:10;;;;;;;11.38;9.93;;;;;;;25.91;51.09;101225.59;5040233;28;20052;-88
2022/08/17 02:59:36;;;;;;;10.48;9.48;;;;;;;25.92;51.17;101231.75;5056689;28;20039;-89
2022/08/17 03:02:03;;;;;;;10.48;9.48;;;;;;;25.93;51.08;101233.47;5057001;28;20074;-87
2022/08/17 03:04:30;;;;;;;11.15;9.40;;;;;;;25.94;51.23;101227.28;5056763;28;20115;-89
2022/08/17 03:06:55;;;;;;;10.45;9.18;;;;;;;25.92;51.12;101222.06;5039954;28;20032;-80
2022/08/17 03:09:20;;;;;;;13.05;9.07;;;;;;;25.93;50.90;101215.84;5039264;28;20025;-81
2022/08/17 03:11:46;;;;;;;10.05;9.05;;;;;;;25.95;51.02;101235.13;5055793;28;20502;-81
2022/08/17 03:14:11;;;;;;;9.73;8.63;;;;;;;25.95;51.06;101229.84;5038537;28;20070;-82
2022/08/17 03:16:40;;;;;;;11.52;8.65;;;;;;;25.96;51.06;101222.81;5038549;28;20028;-82
2022/08/17 03:19:05;;;;;;;9.60;8.63;;;;;;;25.95;51.04;101210.53;5038711;28;20028;-81
2022/08/17 03:21:34;;;;;;;9.73;8.30;;;;;;;25.94;50.99;101199.13;5038056;28;20029;-81
2022/08/17 03:23:59;;;;;;;12.77;9.50;;;;;;;25.92;51.04;101173.75;5055294;28;20051;-81
2022/08/17 03:26:26;;;;;;;12.75;8.70;;;;;;;25.90;50.93;101167.69;5054906;28;20399;-81
2022/08/17 03:28:51;;;;;;;13.55;8.70;;;;;;;25.90;51.29;101168.53;5055076;28;20029;-81
2022/08/17 03:31:17;;;;;;;13.77;8.85;;;;;;;25.89;51.08;101163.31;5054897;28;20025;-80
2022/08/17 03:33:43;;;;;;;12.55;8.18;;;;;;;25.88;51.00;101161.56;5054961;28;20135;-81
2022/08/17 03:36:09;;;;;;;14.45;8.75;;;;;;;25.86;51.22;101167.75;5071577;28;20115;-80
2022/08/17 03:38:34;;;;;;;9.85;7.95;;;;;;;25.87;51.17;101179.19;5054977;28;20036;-80
2022/08/17 03:40:59;;;;;;;8.80;7.57;;;;;;;25.88;51.01;101183.53;5038238;28;20472;-80
2022/08/17 03:43:29;;;;;;;12.30;8.73;;;;;;;25.86;51.12;101194.09;5038148;28;20447;-80
2022/08/17 03:57:08;;;;;;;11.25;7.78;;;;;;;25.87;51.04;101166.00;5061395;28;20036;-80
2022/08/17 03:59:35;;;;;;;12.73;7.85;;;;;;;25.86;51.24;101172.16;5074941;28;20123;-80
2022/08/17 04:02:08;;;;;;;10.98;7.82;;;;;;;25.86;50.87;101164.25;5075134;28;20456;-80
2022/08/17 04:04:35;;;;;;;11.25;7.75;;;;;;;25.85;51.02;101165.19;5074683;28;20031;-81
2022/08/17 04:07:01;;;;;;;13.63;8.25;;;;;;;25.82;51.15;101163.50;5074590;28;20384;-81
2022/08/17 04:09:26;;;;;;;11.25;7.38;;;;;;;25.83;51.18;101151.22;5041438;28;20052;-81
2022/08/17 04:11:52;;;;;;;9.65;7.30;;;;;;;25.82;51.08;101142.41;5057845;28;20377;-83
2022/08/17 04:14:18;;;;;;;13.57;8.15;;;;;;;25.83;50.98;101145.94;5058149;28;20020;-81
2022/08/17 04:16:44;;;;;;;9.73;7.18;;;;;;;25.82;50.94;101137.16;5058323;28;20464;-82
2022/08/17 04:19:09;;;;;;;10.73;7.40;;;;;;;25.82;50.94;101131.88;5041265;28;20173;-81
2022/08/17 04:21:35;;;;;;;14.00;7.50;;;;;;;25.84;50.91;101132.66;5058090;28;20024;-81
2022/08/17 04:24:01;;;;;;;11.93;7.55;;;;;;;25.83;51.00;101127.47;5057663;28;20080;-81
2022/08/17 04:26:28;;;;;;;10.18;7.43;;;;;;;25.83;50.98;101128.34;5074409;28;20027;-81
2022/08/17 04:28:54;;;;;;;12.90;8.10;;;;;;;25.82;50.83;101133.66;5074252;28;20024;-81
2022/08/17 04:31:19;;;;;;;10.70;7.70;;;;;;;25.84;50.88;101134.47;5074250;28;20031;-82
2022/08/17 04:33:45;;;;;;;9.07;6.95;;;;;;;25.83;50.84;101140.66;5057768;28;20041;-81
2022/08/17 04:36:13;;;;;;;9.43;7.70;;;;;;;25.83;50.78;101135.38;5057279;28;20039;-80
2022/08/17 04:38:44;;;;;;;9.93;7.35;;;;;;;25.82;50.94;101133.66;5074099;28;20029;-81
2022/08/17 04:44:03;;;;;;;8.13;7.10;;;;;;;25.83;51.06;101132.75;5074785;28;20437;-81
2022/08/17 04:46:32;;;;;;;9.07;7.35;;;;;;;25.83;50.86;101130.13;5057369;28;20099;-81
2022/08/17 04:48:59;;;;;;;10.13;7.30;;;;;;;25.81;50.72;101134.59;5073762;28;20024;-84
2022/08/17 04:51:38;;;;;;;8.52;6.55;;;;;;;25.82;50.83;101123.13;5040846;28;20035;-83
2022/08/17 04:54:14;;;;;;;8.05;6.82;;;;;;;25.82;50.99;101120.47;5074201;28;20031;-82
2022/08/17 04:56:40;;;;;;;8.20;6.35;;;;;;;25.86;50.76;101124.72;5073813;28;20036;-82
2022/08/17 04:59:12;;;;;;;8.75;6.32;;;;;;;25.86;51.13;101129.97;5056749;28;20035;-84
2022/08/17 05:01:39;;;;;;;7.18;6.47;;;;;;;25.84;51.30;101122.13;5073810;28;20020;-83
2022/08/17 05:04:07;;;;;;;7.85;6.18;;;;;;;25.83;50.91;101115.16;5073786;28;20017;-83
2022/08/17 05:06:33;;;;;;;8.75;6.70;;;;;;;25.83;50.93;101115.16;5073711;28;20025;-83
2022/08/17 05:09:02;;;;;;;8.07;5.85;;;;;;;25.83;50.83;101120.41;5057010;28;20032;-84
2022/08/17 05:11:29;;;;;;;10.05;6.32;;;;;;;25.88;50.99;101129.94;5073544;28;20027;-88
2022/08/17 05:13:56;;;;;;;23.27;8.85;;;;;;;25.85;51.45;101131.78;5074106;28;20048;-85
2022/08/17 05:16:23;;;;;;;9.98;6.60;;;;;;;25.85;51.21;101134.41;5073710;28;20017;-84
2022/08/17 05:18:49;;;;;;;11.32;6.78;;;;;;;25.84;51.02;101127.41;5057160;28;20369;-86
2022/08/17 05:21:15;;;;;;;10.82;6.78;;;;;;;25.83;51.03;101140.66;5057001;28;20039;-85
2022/08/17 05:23:41;;;;;;;15.20;7.40;;;;;;;25.82;51.29;101141.56;5073605;28;20044;-84
2022/08/17 05:26:10;;;;;;;9.35;6.90;;;;;;;25.82;51.21;101154.75;5057060;28;20552;-85
2022/08/17 05:28:35;;;;;;;10.52;6.75;;;;;;;25.80;51.09;101151.31;5074874;28;20028;-84
2022/08/17 05:31:04;;;;;;;13.75;7.55;;;;;;;25.79;51.00;101152.25;5039985;28;20536;-84
2022/08/17 05:33:34;;;;;;;8.93;6.68;;;;;;;25.80;51.14;101146.03;5056968;28;20063;-85
2022/08/17 05:36:01;;;;;;;11.02;7.22;;;;;;;25.75;51.22;101140.09;5073225;28;20073;-84
2022/08/17 05:38:28;;;;;;;10.15;7.47;;;;;;;25.75;51.24;101134.81;5039459;28;20036;-84
2022/08/17 05:40:54;;;;;;;10.20;7.40;;;;;;;25.73;51.33;101129.59;5073281;28;20024;-83
2022/08/17 05:43:32;;;;;;;11.18;7.85;;;;;;;25.74;51.02;101135.72;5073118;28;20457;-83
2022/08/17 05:46:04;;;;;;;9.45;7.60;;;;;;;25.73;51.04;101128.75;5073476;28;20081;-83
2022/08/17 05:48:35;;;;;;;9.70;7.72;;;;;;;25.74;50.99;101135.72;5073570;28;20028;-84
2022/08/17 05:51:36;;;;;;;13.10;7.38;;;;;;;25.73;51.12;101132.25;5073327;28;20087;-88
2022/08/17 05:54:16;;;;;;;10.00;7.78;;;;;;;25.74;51.26;101135.72;5073354;28;20484;-85
2022/08/17 05:57:15;;;;;;;8.40;6.82;;;;;;;25.73;51.06;101134.88;5072952;28;20036;-85
2022/08/17 05:59:49;;;;;;;11.48;7.60;;;;;;;25.73;51.14;101141.94;5074201;28;20045;-85
2022/08/17 06:02:36;;;;;;;10.88;7.40;;;;;;;25.73;51.25;101140.16;5073185;28;20035;-85
2022/08/17 06:05:17;;;;;;;8.98;7.53;;;;;;;25.73;51.18;101145.41;5072774;28;20028;-84
2022/08/17 06:07:58;;;;;;;10.35;7.50;;;;;;;25.75;51.09;101155.91;5072808;28;20117;-84
2022/08/17 06:10:46;;;;;;;10.43;7.22;;;;;;;25.75;51.08;101159.41;5073330;28;20052;-88
2022/08/17 06:13:39;;;;;;;10.45;7.60;;;;;;;25.84;51.27;101161.66;5073022;28;20037;-88
2022/08/17 06:16:19;;;;;;;9.93;7.20;;;;;;;25.79;51.10;101163.63;5073426;28;20024;-86
2022/08/17 06:19:12;;;;;;;8.65;7.00;;;;;;;25.80;50.99;101164.50;5073102;28;20353;-86
2022/08/17 06:21:42;;;;;;;10.50;7.30;;;;;;;25.75;50.90;101162.03;5074182;28;20079;-84
2022/08/17 06:24:19;;;;;;;10.43;7.72;;;;;;;25.74;51.46;101151.53;5072894;28;20044;-81
2022/08/17 06:26:46;;;;;;;10.73;7.03;;;;;;;25.73;51.33;101157.75;5072569;28;20020;-82
2022/08/17 06:29:36;;;;;;;11.07;7.95;;;;;;;25.74;51.22;101162.97;5072437;28;20439;-86
2022/08/17 06:32:08;;;;;;;10.07;7.53;;;;;;;25.75;51.39;101174.38;5072581;28;20082;-81
2022/08/17 06:34:36;;;;;;;9.18;7.35;;;;;;;25.75;51.21;101177.00;5072385;28;20124;-87
2022/08/17 06:37:17;;;;;;;8.63;7.53;;;;;;;25.75;51.55;101182.28;5072323;28;20111;-86
2022/08/17 06:40:20;;;;;;;9.90;6.93;;;;;;;25.75;51.52;101195.44;5072379;28;20036;-84
2022/08/17 06:43:05;;;;;;;10.27;7.57;;;;;;;25.75;51.79;101195.44;5073561;28;20083;-85
2022/08/17 06:45:40;;;;;;;11.63;7.60;;;;;;;25.72;51.68;101201.72;5073187;28;20063;-85
2022/08/17 06:48:14;;;;;;;10.48;6.72;;;;;;;25.73;51.70;101213.09;5074211;28;20048;-84
2022/08/17 06:50:53;;;;;;;10.60;7.60;;;;;;;25.71;51.80;101210.50;5073583;28;20103;-84
2022/08/17 06:53:23;;;;;;;8.55;6.53;;;;;;;25.73;51.80;101211.31;5071996;28;20503;-85
2022/08/17 06:55:58;;;;;;;10.93;7.13;;;;;;;25.73;51.88;101205.19;5072238;28;20028;-85
2022/08/17 06:58:26;;;;;;;9.07;6.82;;;;;;;25.72;51.87;101192.91;5073388;28;20024;-85
2022/08/17 07:01:03;;;;;;;11.88;7.30;;;;;;;25.70;52.07;101186.88;5055700;28;20033;-85
2022/08/17 07:04:02;;;;;;;8.85;6.40;;;;;;;25.67;52.13;101198.38;5071964;28;20016;-84
2022/08/17 07:06:56;;;;;;;9.25;6.07;;;;;;;25.69;51.76;101196.53;5072409;28;20040;-85
2022/08/17 07:09:28;;;;;;;;;;;;;;;25.72;51.74;101195.56;5072490;28;20024;-85
2022/08/17 07:12:16;;;;;;;7.40;6.30;;;;;;;25.68;51.69;101189.56;5071911;28;19908;-85
2022/08/17 07:14:56;;;;;;;7.78;6.28;;;;;;;25.67;51.81;101185.19;5071977;28;20495;-85
2022/08/17 07:17:23;;;;;;;8.38;6.20;;;;;;;25.65;51.89;101176.47;5073228;28;20036;-85
2022/08/17 07:19:53;;;;;;;6.68;5.93;;;;;;;25.61;52.03;101170.50;5072970;28;20119;-85
2022/08/17 07:22:35;;;;;;;6.30;5.45;;;;;;;25.64;51.65;101178.25;5072330;28;20055;-85
2022/08/17 07:25:07;;;;;;;6.47;5.70;;;;;;;25.58;51.67;101173.22;5075665;28;20421;-85
2022/08/17 07:27:39;;;;;;;8.03;5.60;;;;;;;25.59;51.77;101174.09;5075771;28;20052;-85
2022/08/17 07:30:23;;;;;;;7.63;5.60;;;;;;;25.56;51.97;101177.69;5075937;28;20105;-85
2022/08/17 07:32:56;;;;;;;8.48;5.43;;;;;;;25.55;51.77;101183.03;5075797;28;20107;-84
2022/08/17 07:35:27;;;;;;;6.75;5.40;;;;;;;25.53;51.95;101176.97;5075739;28;20028;-85
2022/08/17 07:38:12;;;;;;;6.68;5.72;;;;;;;25.53;51.80;101179.59;5075112;28;20115;-78
2022/08/17 07:40:44;;;;;;;6.25;5.20;;;;;;;25.51;51.91;101189.34;5075141;28;20025;-79
2022/08/17 07:43:20;;;;;;;7.13;5.22;;;;;;;25.52;51.82;101188.41;5075430;28;20024;-85
2022/08/17 07:49:07;;;;;;;5.55;4.82;;;;;;;25.59;51.52;101192.56;5076869;28;20036;-85
2022/08/17 07:51:42;;;;;;;6.50;4.88;;;;;;;25.61;51.45;101188.94;5075352;28;20127;-84
2022/08/17 07:54:14;;;;;;;5.45;4.68;;;;;;;25.66;51.23;101194.88;5075249;28;20025;-85
2022/08/17 07:56:56;;;;;;;7.10;4.85;;;;;;;25.64;51.24;101196.72;5074835;28;20024;-79
2022/08/17 07:59:27;;;;;;;6.82;5.13;;;;;;;25.56;51.62;101204.03;5076367;28;20032;-78
2022/08/17 08:01:56;;;;;;;5.72;4.28;;;;;;;25.57;51.34;101189.97;5074840;28;20044;-78
2022/08/17 08:04:45;;;;;;;5.30;4.15;;;;;;;25.55;51.44;101190.94;5074695;28;20021;-79
2022/08/17 08:07:19;;;;;;;4.97;4.40;;;;;;;25.64;51.27;101195.84;5074940;28;20025;-85
2022/08/17 08:09:46;;;;;;;5.72;4.13;;;;;;;25.71;51.22;101199.13;5075291;28;20066;-80
2022/08/17 08:12:32;;;;;;;4.93;4.40;;;;;;;25.66;50.97;101194.88;5075235;28;20115;-87
2022/08/17 08:15:19;;;;;;;5.72;4.47;;;;;;;25.35;52.37;101196.97;5076201;28;20044;-88
2022/08/17 08:17:53;;;;;;;5.72;4.63;;;;;;;25.06;53.00;101209.34;5075026;28;20032;-88
2022/08/17 08:20:41;;;;;;;6.40;5.18;;;;;;;24.97;53.48;101210.53;5075808;28;20024;-87
2022/08/17 08:23:17;;;;;;;6.75;4.57;;;;;;;25.05;52.84;101216.38;5076678;28;20044;-88
2022/08/17 08:25:58;;;;;;;6.75;4.80;;;;;;;24.92;53.72;101219.50;5075707;28;20043;-88
2022/08/17 08:28:32;;;;;;;6.75;4.93;;;;;;;24.87;53.35;101213.53;5075679;28;20024;-88
2022/08/17 08:31:29;;;;;;;7.18;4.53;;;;;;;25.02;52.94;101220.88;5075840;28;20107;-89
2022/08/17 08:34:15;;;;;;;7.97;4.93;;;;;;;24.87;53.53;101227.56;5074919;28;20028;-88
2022/08/17 08:36:49;;;;;;;8.75;5.30;;;;;;;24.95;53.43;101240.44;5075683;28;20388;-88
2022/08/17 08:39:20;;;;;;;8.48;4.70;;;;;;;24.88;53.64;101244.22;5075716;28;20025;-87
2022/08/17 08:42:06;;;;;;;6.65;4.85;;;;;;;24.88;53.54;101246.84;5076696;28;20407;-82
2022/08/17 08:44:50;;;;;;;7.38;4.82;;;;;;;24.87;53.33;101250.38;5075684;28;20111;-83
2022/08/17 08:47:52;;;;;;;7.40;4.70;;;;;;;24.87;53.20;101256.53;5076574;28;20051;-88
2022/08/17 08:50:36;;;;;;;5.88;4.70;;;;;;;24.99;53.30;101257.88;5078758;28;20042;-88
2022/08/17 08:53:23;;;;;;;5.13;4.60;;;;;;;24.96;53.04;101264.09;5080125;28;20059;-88
2022/08/17 08:55:59;;;;;;;7.18;4.50;;;;;;;25.05;52.89;101271.69;5077087;28;20024;-82
2022/08/17 08:58:40;;;;;;;7.93;4.63;;;;;;;24.97;53.10;101275.50;5076535;28;20063;-81
2022/08/17 09:01:32;;;;;;;7.72;4.65;;;;;;;24.87;53.07;101271.44;5079425;28;20035;-82
2022/08/17 09:04:10;;;;;;;5.88;4.30;;;;;;;24.76;53.54;101259.50;5083689;28;20040;-81
2022/08/17 09:06:35;;;;;;;6.43;4.05;;;;;;;24.82;53.16;101259.31;5080782;28;20032;-81
2022/08/17 09:09:10;;;;;;;4.82;4.20;;;;;;;24.78;53.32;101262.94;5077142;28;20024;-81
2022/08/17 09:12:24;;;;;;;5.57;4.40;;;;;;;24.75;53.32;101264.81;5077437;28;20457;-87
2022/08/17 09:15:00;;;;;;;5.05;4.28;;;;;;;24.78;53.51;101255.06;5077780;28;20028;-81
2022/08/17 09:17:58;;;;;;;5.03;4.47;;;;;;;24.79;53.26;101251.50;5076645;28;20103;-81
2022/08/17 09:20:32;;;;;;;5.18;4.30;;;;;;;24.89;53.01;101253.81;5075593;28;20024;-88
2022/08/17 09:23:06;;;;;;;5.65;4.63;;;;;;;24.80;52.88;101253.25;5074925;28;20075;-88
2022/08/17 09:25:44;;;;;;;5.07;4.18;;;;;;;24.82;53.08;101250.53;5075049;28;20028;-87
2022/08/17 09:28:18;;;;;;;5.70;4.43;;;;;;;24.82;52.85;101246.16;5074033;28;20044;-87
2022/08/17 09:30:57;;;;;;;4.72;4.25;;;;;;;24.84;52.84;101246.94;5074476;28;20027;-87
2022/08/17 09:33:26;;;;;;;5.18;4.28;;;;;;;24.83;52.59;101250.50;5073691;28;20048;-88
2022/08/17 09:35:57;;;;;;;7.88;4.47;;;;;;;24.84;52.09;101249.56;5073520;28;20021;-88
2022/08/17 09:38:33;;;;;;;4.68;4.22;;;;;;;24.80;52.42;101254.97;5073657;28;20025;-87
2022/08/17 09:41:11;;;;;;;6.18;4.30;;;;;;;24.78;52.14;101252.44;5075006;28;20048;-87
2022/08/17 09:43:49;;;;;;;6.72;4.70;;;;;;;24.70;52.71;101253.59;5073549;28;20024;-80
2022/08/17 09:46:18;;;;;;;5.03;4.53;;;;;;;24.84;52.08;101257.47;5072652;28;20031;-79
2022/08/17 09:48:43;;;;;;;5.03;4.43;;;;;;;24.97;52.14;101262.31;5072736;28;20082;-80
2022/08/17 09:51:32;;;;;;;4.88;4.22;;;;;;;25.16;51.34;101255.50;5072659;28;20040;-79
2022/08/17 09:53:58;;;;;;;5.05;4.07;;;;;;;25.28;51.05;101259.50;5072756;28;20384;-83
2022/08/17 09:56:56;;;;;;;5.15;4.20;;;;;;;25.32;51.05;101255.84;5056028;28;20033;-83
2022/08/17 09:59:31;;;;;;;6.18;4.13;;;;;;;25.39;50.86;101256.50;5072662;28;20066;-78
2022/08/17 10:02:15;;;;;;;6.97;4.35;;;;;;;25.34;51.37;101259.28;5072620;28;20358;-80
2022/08/17 10:04:55;;;;;;;5.40;4.63;;;;;;;25.35;51.02;101268.09;5072839;28;20115;-80
2022/08/17 10:07:31;;;;;;;6.30;4.78;;;;;;;25.40;51.02;101274.03;5072448;28;20439;-80
2022/08/17 10:10:11;;;;;;;5.65;4.70;;;;;;;25.42;51.01;101282.75;5072541;28;20459;-79
2022/08/17 10:12:51;;;;;;;6.88;4.88;;;;;;;25.47;50.84;101282.59;5072508;28;20112;-78
2022/08/17 10:15:27;;;;;;;5.03;4.50;;;;;;;25.53;50.76;101290.28;5072232;28;20407;-78
2022/08/17 10:17:56;;;;;;;5.75;4.80;;;;;;;25.51;51.22;101276.28;5072392;28;20024;-79
2022/08/17 10:20:29;;;;;;;7.63;5.00;;;;;;;25.54;50.73;101271.75;5072256;28;20526;-79
2022/08/17 10:26:12;;;;;;;5.90;5.28;;;;;;;25.52;51.33;101297.34;5073362;28;20098;-79
2022/08/17 10:28:58;;;;;;;6.28;5.05;;;;;;;25.57;51.28;101302.44;5072501;28;20436;-79
2022/08/17 10:31:34;;;;;;;5.53;5.03;;;;;;;25.52;51.10;101307.88;5073940;28;20056;-80
2022/08/17 10:34:28;;;;;;;5.28;4.78;;;;;;;25.42;51.67;101317.84;5073325;28;20475;-79
2022/08/17 10:37:25;;;;;;;7.13;5.05;;;;;;;25.41;51.80;101325.81;5072644;28;20040;-80
2022/08/17 10:40:14;;;;;;;6.40;5.72;;;;;;;25.36;51.98;101327.75;5072522;28;20035;-79
2022/08/17 10:42:50;;;;;;;6.85;5.85;;;;;;;25.34;52.29;101326.94;5072297;28;20028;-79
2022/08/17 10:45:28;;;;;;;7.38;5.50;;;;;;;25.34;52.09;101319.88;5072374;28;20024;-79
2022/08/17 10:47:59;;;;;;;8.50;6.10;;;;;;;25.37;51.85;101318.91;5072163;28;20070;-78
2022/08/17 10:50:59;;;;;;;6.95;6.07;;;;;;;25.41;52.17;101302.09;5072341;28;20028;-78
2022/08/17 10:53:30;;;;;;;8.63;7.20;;;;;;;25.39;52.21;101293.38;5072085;28;20033;-78
2022/08/17 10:56:11;;;;;;;7.25;6.50;;;;;;;25.46;52.17;101287.00;5071889;28;20028;-78
2022/08/17 10:59:00;;;;;;;10.98;7.15;;;;;;;25.40;52.24;101285.44;5074679;28;20028;-78
2022/08/17 11:01:36;;;;;;;9.13;6.25;;;;;;;25.45;52.27;101287.91;5076088;28;20025;-79
2022/08/17 11:04:17;;;;;;;7.75;7.05;;;;;;;25.50;52.48;101288.63;5075892;28;20544;-79
2022/08/17 11:07:10;;;;;;;7.97;7.18;;;;;;;25.47;52.50;101280.81;5075907;28;20122;-78
2022/08/17 11:09:42;;;;;;;;;;;;;;;25.45;52.84;101277.34;5076204;28;20063;-78
2022/08/17 11:12:28;;;;;;;7.70;6.90;;;;;;;25.48;52.43;101279.91;5075778;28;19908;-79
2022/08/17 11:15:18;;;;;;;7.72;6.63;;;;;;;25.53;52.67;101285.00;5076833;28;20107;-79
2022/08/17 11:18:05;;;;;;;8.57;7.10;;;;;;;25.53;52.23;101282.38;5077164;28;20127;-79
2022/08/17 11:20:52;;;;;;;8.27;6.60;;;;;;;25.46;52.69;101297.53;5075478;28;20035;-79
2022/08/17 11:23:39;;;;;;;7.53;6.72;;;;;;;25.44;52.42;101299.38;5075396;28;20044;-84
2022/08/17 11:26:24;;;;;;;8.50;6.75;;;;;;;25.39;53.03;101306.56;5075689;28;20044;-84
2022/08/17 11:28:55;;;;;;;6.78;6.13;;;;;;;25.39;52.89;101304.81;5076333;28;20048;-84
2022/08/17 11:31:36;;;;;;;9.07;6.57;;;;;;;25.41;52.95;101305.59;5075796;28;20024;-82
2022/08/17 11:34:14;;;;;;;7.63;6.28;;;;;;;25.50;52.52;101304.44;5075871;28;20070;-81
2022/08/17 11:37:05;;;;;;;11.50;7.10;;;;;;;25.49;52.73;101300.06;5075565;28;20063;-81
2022/08/17 11:40:05;;;;;;;7.60;6.20;;;;;;;25.59;52.43;101303.25;5075749;28;20028;-86
2022/08/17 11:42:35;;;;;;;7.78;6.15;;;;;;;25.58;52.20;101296.22;5076055;28;20020;-84
2022/08/17 11:45:37;;;;;;;9.27;6.75;;;;;;;25.55;52.58;101291.94;5075427;28;20048;-86
2022/08/17 11:51:32;;;;;;;7.70;6.50;;;;;;;25.67;51.97;101282.72;5076924;28;20035;-79
2022/08/17 11:54:07;;;;;;;6.95;6.25;;;;;;;25.72;51.54;101282.53;5075386;28;20041;-82
2022/08/17 11:56:40;;;;;;;6.57;5.72;;;;;;;25.71;51.22;101289.59;5075207;28;20586;-80
2022/08/17 11:59:40;;;;;;;6.13;5.57;;;;;;;25.69;51.69;101290.56;5074979;28;20029;-82
2022/08/17 12:02:34;;;;;;;6.57;5.97;;;;;;;25.70;51.35;101295.78;5076264;28;20096;-82
2022/08/17 12:05:26;;;;;;;8.18;5.60;;;;;;;25.74;51.41;101301.78;5072257;28;20032;-82
2022/08/17 12:07:59;;;;;;;5.78;5.28;;;;;;;25.74;51.48;101309.69;5076142;28;20032;-83
2022/08/17 12:10:31;;;;;;;6.13;5.40;;;;;;;25.73;51.39;101308.00;5074170;28;20376;-83
2022/08/17 12:13:01;;;;;;;6.05;5.45;;;;;;;25.72;51.34;101312.41;5076350;28;20099;-83
2022/08/17 12:15:31;;;;;;;6.05;5.45;;;;;;;25.72;51.33;101324.72;5074997;28;20075;-82